Time;durP1;ratioP1;P1;durP2;ratioP2;P2;SDS_P1;SDS_P2;PMS_P1;PMS_P2;Temp;Humidity;BMP_temperature;BMP_pressure;BME280_temperature;BME280_humidity;BME280_pressure;Samples;Min_cycle;Max_cycle;Signal;HPM_P1;HPM_P2
2022/01/19 00:01:13;;;;;;;66.88;29.33;;;;;;;1.15;92.89;103279.44;5078527;28;20036;-72
2022/01/19 00:03:38;;;;;;;71.20;30.42;;;;;;;1.14;93.31;103281.06;5074806;28;20195;-71
2022/01/19 00:06:05;;;;;;;79.65;29.38;;;;;;;1.13;92.82;103270.66;5069171;28;20052;-72
2022/01/19 00:08:30;;;;;;;77.18;28.60;;;;;;;1.10;92.43;103261.00;5076244;28;20019;-72
2022/01/19 00:10:56;;;;;;;82.07;29.08;;;;;;;1.07;93.17;103255.53;5085432;28;20043;-72
2022/01/19 00:13:22;;;;;;;80.55;28.33;;;;;;;1.07;93.20;103254.63;5081804;28;20285;-72
2022/01/19 00:15:48;;;;;;;130.35;32.30;;;;;;;1.04;94.49;103252.66;5084412;28;20179;-72
2022/01/19 00:18:17;;;;;;;138.30;31.63;;;;;;;1.04;95.55;103266.44;5083498;28;20066;-72
2022/01/19 00:20:42;;;;;;;164.07;31.63;;;;;;;1.03;95.01;103274.88;5077015;28;20256;-72
2022/01/19 00:23:09;;;;;;;94.45;28.67;;;;;;;0.97;95.93;103274.25;5083494;28;20274;-72
2022/01/19 00:25:35;;;;;;;100.80;30.80;;;;;;;0.94;96.19;103267.88;5082048;28;20008;-73
2022/01/19 00:28:00;;;;;;;104.97;28.92;;;;;;;0.90;96.07;103253.84;5076392;28;20164;-72
2022/01/19 00:30:27;;;;;;;113.18;27.73;;;;;;;0.86;94.83;103238.88;5082558;28;20052;-72
2022/01/19 00:32:52;;;;;;;96.25;26.83;;;;;;;0.77;95.59;103208.06;5078515;28;20164;-73
2022/01/19 00:35:18;;;;;;;114.15;28.30;;;;;;;0.70;94.58;103190.22;5077607;28;20028;-72
2022/01/19 00:37:43;;;;;;;93.20;27.92;;;;;;;0.65;94.50;103181.16;5078675;28;20031;-73
2022/01/19 00:40:12;;;;;;;96.80;26.63;;;;;;;0.61;95.48;103171.31;5083458;28;20008;-73
2022/01/19 00:42:38;;;;;;;113.80;28.25;;;;;;;0.56;95.70;103154.56;5077636;28;20031;-72
2022/01/19 00:45:04;;;;;;;90.63;25.85;;;;;;;0.52;96.22;103156.81;5079454;28;20036;-72
2022/01/19 00:47:30;;;;;;;88.28;24.38;;;;;;;0.48;95.83;103164.94;5083251;28;20072;-72
2022/01/19 00:49:55;;;;;;;62.05;25.40;;;;;;;0.47;95.66;103186.22;5085218;28;20060;-73
2022/01/19 00:52:20;;;;;;;63.00;24.05;;;;;;;0.47;95.83;103183.66;5083265;28;20024;-73
2022/01/19 00:54:46;;;;;;;48.22;23.33;;;;;;;0.46;96.51;103199.78;5083936;28;20020;-73
2022/01/19 00:57:11;;;;;;;50.53;24.35;;;;;;;0.47;95.49;103200.72;5084082;28;20036;-73
2022/01/19 00:59:36;;;;;;;55.08;22.95;;;;;;;0.46;95.43;103204.00;5077162;28;20071;-73
2022/01/19 01:02:02;;;;;;;52.05;24.75;;;;;;;0.44;94.61;103210.66;5080977;28;20020;-73
2022/01/19 01:04:28;;;;;;;59.28;23.60;;;;;;;0.42;94.76;103207.94;5082465;28;20076;-72
2022/01/19 01:06:53;;;;;;;55.55;22.17;;;;;;;0.41;94.21;103195.84;5084731;28;20027;-73
2022/01/19 01:09:19;;;;;;;47.45;22.25;;;;;;;0.40;94.30;103185.44;5084797;28;20084;-73
2022/01/19 01:11:58;;;;;;;45.88;22.20;;;;;;;0.38;94.32;103184.34;5083363;28;20170;-73
2022/01/19 01:20:01;;;;;;;86.05;23.50;;;;;;;0.31;95.17;103152.06;5080304;28;20035;-73
2022/01/19 01:22:26;;;;;;;70.40;23.50;;;;;;;0.25;94.91;103147.22;5085634;28;20278;-73
2022/01/19 01:24:52;;;;;;;74.78;22.73;;;;;;;0.18;94.36;103139.66;5081682;28;20040;-73
2022/01/19 01:27:17;;;;;;;59.47;23.33;;;;;;;0.13;94.47;103131.50;5086628;28;20024;-73
2022/01/19 01:29:42;;;;;;;47.58;21.70;;;;;;;0.12;95.30;103124.53;5084667;28;20035;-73
2022/01/19 01:32:08;;;;;;;54.38;20.73;;;;;;;0.11;95.67;103109.91;5082963;28;20115;-73
2022/01/19 01:34:34;;;;;;;62.28;20.83;;;;;;;0.09;95.19;103098.59;5084227;28;20378;-73
2022/01/19 01:36:59;;;;;;;49.03;21.38;;;;;;;0.05;95.02;103091.34;5082978;28;20038;-73
2022/01/19 01:39:25;;;;;;;54.83;21.25;;;;;;;0.02;95.44;103062.84;5085086;28;20092;-73
2022/01/19 01:41:50;;;;;;;80.28;23.88;;;;;;;0.03;96.00;103050.91;5083847;28;20016;-73
2022/01/19 01:44:16;;;;;;;83.38;25.00;;;;;;;0.06;97.00;103044.47;5082576;28;20088;-73
2022/01/19 01:46:51;;;;;;;73.82;23.27;;;;;;;0.09;96.30;103052.47;5084033;28;20025;-73
2022/01/19 01:49:27;;;;;;;103.43;24.90;;;;;;;0.13;96.65;103051.09;5080211;28;20035;-73
2022/01/19 01:54:37;;;;;;;60.92;22.27;;;;;;;0.13;95.65;103061.34;5083664;28;20297;-73
2022/01/19 01:57:02;;;;;;;63.15;22.95;;;;;;;0.12;95.25;103059.56;5083819;28;20029;-73
2022/01/19 01:59:28;;;;;;;56.17;22.17;;;;;;;0.08;95.92;103067.69;5083686;28;20151;-73
2022/01/19 02:01:53;;;;;;;46.28;22.55;;;;;;;0.08;95.47;103068.56;5083896;28;20024;-72
2022/01/19 02:04:22;;;;;;;45.20;20.65;;;;;;;0.10;95.24;103064.53;5083630;28;20217;-72
2022/01/19 02:07:32;;;;;;;53.85;22.88;;;;;;;0.10;94.96;103055.91;5076486;28;20005;-73
2022/01/19 02:09:39;;;;;;;46.25;22.00;;;;;;;0.09;94.50;103044.78;5078525;28;20039;-73
2022/01/19 02:23:24;;;;;;;60.13;25.00;;;;;;;0.06;94.72;103018.84;5075431;28;20036;-73
2022/01/19 02:25:57;;;;;;;54.78;23.38;;;;;;;0.04;95.12;103017.75;5081148;28;20024;-73
2022/01/19 02:31:49;;;;;;;67.00;23.65;;;;;;;0.01;94.91;103012.31;5083210;28;20035;-73
2022/01/19 02:36:36;;;;;;;66.90;22.77;;;;;;;-0.03;94.58;102989.69;5079063;28;20055;-72
2022/01/19 02:42:28;;;;;;;74.13;23.23;;;;;;;-0.15;95.22;102958.59;5085736;28;20028;-72
2022/01/19 02:49:53;;;;;;;55.95;24.05;;;;;;;-0.24;95.12;102927.84;5083092;28;20024;-72
2022/01/19 02:52:20;;;;;;;51.78;22.58;;;;;;;-0.24;94.85;102932.06;5086311;28;20024;-73
2022/01/19 02:54:46;;;;;;;51.85;23.23;;;;;;;-0.24;94.76;102932.06;5087567;28;20027;-72
2022/01/19 02:57:13;;;;;;;60.25;26.05;;;;;;;-0.24;94.46;102938.09;5086444;28;20024;-73
2022/01/19 03:06:27;;;;;;;59.30;22.63;;;;;;;-0.22;94.17;102935.69;5080453;28;20017;-72
2022/01/19 03:10:47;;;;;;;67.18;25.02;;;;;;;-0.36;94.04;102911.25;5087068;28;20028;-72
2022/01/19 03:13:12;;;;;;;59.10;23.90;;;;;;;-0.38;94.41;102902.50;5082796;28;20028;-73
2022/01/19 03:15:37;;;;;;;58.22;22.45;;;;;;;-0.38;93.94;102905.97;5084581;28;20015;-73
2022/01/19 03:18:03;;;;;;;66.55;23.58;;;;;;;-0.40;94.69;102894.66;5086713;28;20036;-73
2022/01/19 03:20:29;;;;;;;112.95;24.90;;;;;;;-0.46;93.34;102885.47;5085737;28;20009;-73
2022/01/19 03:25:20;;;;;;;104.00;24.10;;;;;;;-0.63;94.85;102879.53;5080911;28;20096;-73
2022/01/19 03:27:47;;;;;;;62.45;24.10;;;;;;;-0.71;94.76;102886.44;5081524;28;20228;-72
2022/01/19 03:30:15;;;;;;;53.90;23.50;;;;;;;-0.77;94.72;102878.13;5086659;28;20078;-73
2022/01/19 03:32:41;;;;;;;52.10;22.50;;;;;;;-0.77;95.42;102866.97;5088528;28;20164;-73
2022/01/19 03:35:07;;;;;;;61.92;25.90;;;;;;;-0.76;95.43;102858.56;5086720;28;20028;-72
2022/01/19 03:37:32;;;;;;;60.00;24.52;;;;;;;-0.71;96.54;102871.06;5086473;28;20023;-73
2022/01/19 03:39:57;;;;;;;65.78;25.95;;;;;;;-0.63;96.98;102863.28;5086399;28;20024;-73
2022/01/19 03:42:23;;;;;;;77.63;26.85;;;;;;;-0.55;97.10;102857.25;5092353;28;20020;-72
2022/01/19 03:44:48;;;;;;;70.57;27.67;;;;;;;-0.48;97.77;102859.66;5082962;28;20200;-73
2022/01/19 03:47:14;;;;;;;71.15;27.98;;;;;;;-0.40;97.31;102852.78;5083386;28;20104;-73
2022/01/19 03:49:39;;;;;;;78.60;28.67;;;;;;;-0.34;97.65;102842.25;5086370;28;20270;-73
2022/01/19 03:52:05;;;;;;;87.72;30.23;;;;;;;-0.24;98.36;102838.19;5084703;28;20070;-73
2022/01/19 03:54:35;;;;;;;90.30;31.13;;;;;;;-0.17;99.05;102829.47;5084110;28;20016;-73
2022/01/19 03:57:00;;;;;;;89.57;31.50;;;;;;;-0.11;98.61;102816.34;5085837;28;20044;-73
2022/01/19 03:59:26;;;;;;;87.47;29.23;;;;;;;-0.06;98.92;102815.13;5086220;28;20025;-73
2022/01/19 04:01:54;;;;;;;92.65;30.83;;;;;;;0.00;98.16;102813.19;5085640;28;20087;-72
2022/01/19 04:07:00;;;;;;;88.65;33.10;;;;;;;0.07;98.75;102807.88;5085884;28;20168;-72
2022/01/19 04:09:27;;;;;;;97.15;30.92;;;;;;;0.11;98.63;102811.66;5083475;28;20271;-73
2022/01/19 04:11:53;;;;;;;101.22;31.10;;;;;;;0.12;98.15;102804.13;5082895;28;20028;-73
2022/01/19 04:14:21;;;;;;;90.10;31.45;;;;;;;0.15;98.40;102800.97;5080735;28;20279;-73
2022/01/19 04:16:50;;;;;;;96.45;32.08;;;;;;;0.17;98.52;102804.56;5083162;28;20067;-73
2022/01/19 04:19:28;;;;;;;87.60;29.98;;;;;;;0.19;98.83;102797.94;5085668;28;20028;-73
2022/01/19 04:21:55;;;;;;;85.40;30.10;;;;;;;0.21;98.89;102796.44;5083505;28;20016;-73
2022/01/19 04:24:22;;;;;;;94.78;31.65;;;;;;;0.20;98.10;102786.03;5079533;28;20370;-73
2022/01/19 04:29:32;;;;;;;109.60;33.95;;;;;;;0.25;98.29;102797.66;5082065;28;20075;-73
2022/01/19 04:31:57;;;;;;;113.53;33.58;;;;;;;0.27;99.34;102806.38;5085414;28;20012;-73
2022/01/19 04:34:23;;;;;;;107.70;35.03;;;;;;;0.31;99.08;102805.91;5085411;28;20020;-73
2022/01/19 04:37:21;;;;;;;98.32;31.88;;;;;;;0.34;98.83;102812.22;5084040;28;20035;-73
2022/01/19 04:48:16;;;;;;;114.15;34.95;;;;;;;0.44;98.89;102797.75;5084584;28;20019;-73
2022/01/19 05:01:46;;;;;;;124.45;37.35;;;;;;;0.52;98.20;102786.53;5078156;28;20174;-73
2022/01/19 05:04:37;;;;;;;118.38;37.10;;;;;;;0.53;98.54;102783.22;5079460;28;20028;-73
2022/01/19 05:07:56;;;;;;;116.25;36.75;;;;;;;0.55;97.97;102778.25;5084801;28;20365;-73
2022/01/19 05:10:03;;;;;;;123.20;36.40;;;;;;;0.55;98.65;102775.69;5080520;28;20032;-73
2022/01/19 05:15:12;;;;;;;128.15;35.45;;;;;;;0.54;98.23;102777.34;5079249;28;20028;-73
2022/01/19 05:17:37;;;;;;;121.78;35.60;;;;;;;0.54;98.60;102774.78;5083318;28;20021;-73
2022/01/19 05:20:05;;;;;;;122.65;34.25;;;;;;;0.55;98.73;102781.75;5084463;28;20265;-73
2022/01/19 05:22:30;;;;;;;121.80;34.70;;;;;;;0.56;98.36;102785.19;5084353;28;20052;-73
2022/01/19 05:24:56;;;;;;;114.85;34.25;;;;;;;0.56;98.05;102787.75;5080896;28;20031;-73
2022/01/19 05:27:22;;;;;;;115.80;33.55;;;;;;;0.57;97.98;102789.56;5079415;28;20107;-73
2022/01/19 05:29:48;;;;;;;104.05;32.35;;;;;;;0.58;98.04;102796.50;5072675;28;20035;-73
2022/01/19 05:32:13;;;;;;;128.20;33.05;;;;;;;0.59;98.26;102795.75;5077530;28;20323;-73
2022/01/19 05:34:38;;;;;;;117.78;33.50;;;;;;;0.58;98.89;102789.72;5082635;28;20066;-73
2022/01/19 05:37:04;;;;;;;115.25;34.78;;;;;;;0.58;98.28;102801.63;5084226;28;20083;-73
2022/01/19 05:39:29;;;;;;;109.60;33.92;;;;;;;0.56;98.70;102787.75;5086417;28;20274;-73
2022/01/19 05:41:54;;;;;;;109.10;33.10;;;;;;;0.56;98.04;102780.06;5083982;28;20036;-73
2022/01/19 05:44:20;;;;;;;110.43;32.80;;;;;;;0.57;98.07;102781.88;5083777;28;20043;-73
2022/01/19 05:46:45;;;;;;;115.57;33.28;;;;;;;0.58;98.47;102775.97;5083828;28;20130;-73
2022/01/19 05:49:10;;;;;;;106.95;30.83;;;;;;;0.59;98.11;102776.13;5083645;28;20024;-73
2022/01/19 05:51:36;;;;;;;102.82;32.95;;;;;;;0.62;98.21;102767.81;5076023;28;20356;-73
2022/01/19 05:54:01;;;;;;;113.18;34.17;;;;;;;0.60;97.51;102757.41;5084150;28;20136;-73
2022/01/19 05:56:27;;;;;;;106.45;32.17;;;;;;;0.62;98.24;102765.25;5083749;28;20028;-73
2022/01/19 05:58:52;;;;;;;101.45;31.67;;;;;;;0.63;98.39;102761.94;5089233;28;20020;-72
2022/01/19 06:01:18;;;;;;;100.85;31.58;;;;;;;0.64;97.84;102762.06;5081253;28;20034;-73
2022/01/19 06:03:43;;;;;;;101.47;31.85;;;;;;;0.67;97.72;102769.16;5073241;28;20021;-72
2022/01/19 06:06:10;;;;;;;102.72;32.03;;;;;;;0.68;98.40;102768.38;5083709;28;20016;-72
2022/01/19 06:08:43;;;;;;;94.20;31.38;;;;;;;0.70;97.75;102769.44;5070924;28;20025;-73
2022/01/19 06:11:09;;;;;;;97.03;32.42;;;;;;;0.72;97.60;102765.34;5080851;28;20047;-73
2022/01/19 06:13:35;;;;;;;101.88;31.95;;;;;;;0.73;97.98;102758.59;5077641;28;20024;-73
2022/01/19 06:16:00;;;;;;;98.82;32.22;;;;;;;0.73;98.09;102759.47;5074877;28;20183;-73
2022/01/19 06:18:26;;;;;;;94.65;31.17;;;;;;;0.75;97.91;102759.63;5081376;28;20028;-73
2022/01/19 06:20:51;;;;;;;100.32;31.73;;;;;;;0.76;97.85;102753.75;5083780;28;20096;-73
2022/01/19 06:23:17;;;;;;;94.50;30.52;;;;;;;0.75;98.37;102751.91;5080247;28;20035;-73
2022/01/19 06:25:42;;;;;;;102.05;31.85;;;;;;;0.76;98.44;102754.63;5077946;28;20267;-73
2022/01/19 06:28:07;;;;;;;96.82;31.65;;;;;;;0.79;97.96;102754.03;5079576;28;20020;-73
2022/01/19 06:30:33;;;;;;;91.18;29.67;;;;;;;0.80;98.15;102733.63;5082430;28;20051;-72
2022/01/19 06:32:58;;;;;;;94.22;32.20;;;;;;;0.80;98.15;102736.19;5080037;28;20092;-73
2022/01/19 06:35:24;;;;;;;94.75;30.63;;;;;;;0.82;98.79;102734.66;5079177;28;20245;-73
2022/01/19 06:37:49;;;;;;;100.40;30.45;;;;;;;0.82;98.04;102723.50;5082020;28;20111;-72
2022/01/19 06:40:17;;;;;;;84.60;30.55;;;;;;;0.84;97.70;102725.47;5083186;28;20028;-73
2022/01/19 06:42:44;;;;;;;84.97;29.27;;;;;;;0.86;97.97;102721.38;5079955;28;20078;-73
2022/01/19 06:45:11;;;;;;;93.78;30.23;;;;;;;0.86;97.52;102718.81;5083198;28;20024;-73
2022/01/19 06:47:37;;;;;;;87.47;30.58;;;;;;;0.87;98.12;102706.91;5082919;28;20083;-72
2022/01/19 06:50:08;;;;;;;87.28;31.48;;;;;;;0.89;98.04;102714.72;5082870;28;20024;-72
2022/01/19 06:52:33;;;;;;;93.03;30.17;;;;;;;0.89;98.10;102707.94;5083444;28;20097;-73
2022/01/19 06:54:59;;;;;;;81.55;28.92;;;;;;;0.91;97.85;102702.94;5080803;28;20024;-72
2022/01/19 06:57:24;;;;;;;92.65;30.60;;;;;;;0.90;98.46;102694.34;5083250;28;20051;-72
2022/01/19 06:59:51;;;;;;;80.93;27.98;;;;;;;0.92;97.86;102690.25;5083048;28;20234;-72
2022/01/19 07:02:17;;;;;;;89.65;30.80;;;;;;;0.93;98.40;102691.13;5082077;28;20179;-72
2022/01/19 07:04:48;;;;;;;91.85;29.50;;;;;;;0.96;98.16;102691.44;5081785;28;20008;-72
2022/01/19 07:07:14;;;;;;;95.15;29.88;;;;;;;0.96;98.12;102682.06;5075448;28;20025;-72
2022/01/19 07:09:39;;;;;;;92.15;29.75;;;;;;;0.97;97.99;102685.53;5083173;28;20080;-72
2022/01/19 07:12:05;;;;;;;87.68;28.83;;;;;;;0.99;98.17;102687.47;5080681;28;20171;-72
2022/01/19 07:14:30;;;;;;;89.35;30.00;;;;;;;1.00;98.00;102688.38;5083054;28;20099;-72
2022/01/19 07:16:56;;;;;;;88.25;30.42;;;;;;;1.02;98.11;102684.31;5082687;28;20096;-72
2022/01/19 07:19:21;;;;;;;85.00;29.60;;;;;;;1.04;97.66;102685.34;5082985;28;20012;-72
2022/01/19 07:21:46;;;;;;;85.38;29.35;;;;;;;1.05;98.49;102679.44;5082881;28;20038;-72
2022/01/19 07:24:14;;;;;;;90.60;29.52;;;;;;;1.07;98.18;102675.34;5075308;28;20032;-72
2022/01/19 07:26:40;;;;;;;81.15;27.25;;;;;;;1.10;97.84;102683.34;5074340;28;20016;-72
2022/01/19 07:29:05;;;;;;;81.93;28.83;;;;;;;1.10;97.98;102680.78;5079662;28;20266;-72
2022/01/19 07:31:30;;;;;;;84.97;29.08;;;;;;;1.11;98.37;102677.44;5082553;28;20016;-71
2022/01/19 07:33:55;;;;;;;75.45;28.33;;;;;;;1.13;98.01;102670.78;5082687;28;20052;-72
2022/01/19 07:36:21;;;;;;;89.22;28.38;;;;;;;1.15;98.19;102676.06;5082677;28;20084;-72
2022/01/19 07:38:46;;;;;;;86.93;27.63;;;;;;;1.16;98.44;102670.13;5086164;28;20024;-72
2022/01/19 07:41:11;;;;;;;77.82;27.23;;;;;;;1.18;98.25;102674.66;5086883;28;20062;-72
2022/01/19 07:43:37;;;;;;;81.38;27.13;;;;;;;1.19;98.78;102668.78;5086874;28;20021;-72
2022/01/19 07:46:03;;;;;;;78.22;27.35;;;;;;;1.20;98.42;102659.41;5087961;28;20020;-73
2022/01/19 07:48:28;;;;;;;79.30;26.80;;;;;;;1.21;98.73;102658.63;5086454;28;20314;-72
2022/01/19 07:50:54;;;;;;;73.65;26.33;;;;;;;1.21;98.75;102656.97;5086030;28;20277;-72
2022/01/19 07:53:19;;;;;;;76.70;27.20;;;;;;;1.24;98.45;102658.03;5086216;28;20026;-72
2022/01/19 07:55:46;;;;;;;78.45;26.58;;;;;;;1.25;98.33;102665.88;5086103;28;20031;-72
2022/01/19 07:58:12;;;;;;;78.13;26.00;;;;;;;1.28;98.50;102665.25;5086212;28;20020;-72
2022/01/19 08:00:38;;;;;;;74.30;25.98;;;;;;;1.29;98.51;102656.75;5085903;28;20050;-72
2022/01/19 08:03:05;;;;;;;69.53;25.38;;;;;;;1.32;98.64;102657.94;5077369;28;20167;-72
2022/01/19 08:05:31;;;;;;;72.50;25.77;;;;;;;1.34;98.71;102655.53;5085804;28;20032;-72
2022/01/19 08:07:56;;;;;;;76.70;26.25;;;;;;;1.36;98.71;102654.91;5080308;28;20017;-72
2022/01/19 08:10:22;;;;;;;82.53;27.10;;;;;;;1.38;98.16;102652.47;5085390;28;20114;-72
2022/01/19 08:12:50;;;;;;;77.75;25.90;;;;;;;1.39;98.40;102654.25;5082326;28;20081;-72
2022/01/19 08:15:16;;;;;;;74.57;24.75;;;;;;;1.42;98.40;102651.06;5081113;28;20114;-72
2022/01/19 08:17:41;;;;;;;74.55;25.23;;;;;;;1.43;98.62;102651.19;5085762;28;20263;-72
2022/01/19 08:20:07;;;;;;;79.30;25.58;;;;;;;1.43;98.40;102640.91;5084768;28;20087;-72
2022/01/19 08:22:32;;;;;;;72.35;25.33;;;;;;;1.45;98.52;102634.28;5085796;28;20271;-72
2022/01/19 08:24:57;;;;;;;74.10;26.08;;;;;;;1.46;98.22;102636.06;5082062;28;20031;-71
2022/01/19 08:27:23;;;;;;;74.80;25.95;;;;;;;1.47;98.53;102630.16;5085384;28;20199;-72
2022/01/19 08:29:48;;;;;;;72.20;24.60;;;;;;;1.47;98.31;102632.72;5085209;28;20024;-72
2022/01/19 08:32:13;;;;;;;67.30;24.17;;;;;;;1.48;97.88;102631.97;5079614;28;20283;-72
2022/01/19 08:34:39;;;;;;;80.10;26.15;;;;;;;1.49;98.04;102626.09;5084905;28;20032;-72
2022/01/19 08:37:04;;;;;;;77.97;25.95;;;;;;;1.50;98.03;102627.88;5084306;28;20071;-72
2022/01/19 08:39:29;;;;;;;74.93;25.95;;;;;;;1.51;98.47;102621.97;5084938;28;20028;-72
2022/01/19 08:41:55;;;;;;;74.05;25.58;;;;;;;1.52;98.35;102626.34;5078689;28;20070;-72
2022/01/19 08:44:21;;;;;;;70.18;23.80;;;;;;;1.55;98.41;102631.75;5075396;28;20035;-72
2022/01/19 08:46:47;;;;;;;71.38;24.58;;;;;;;1.56;98.79;102627.50;5077717;28;20220;-72
2022/01/19 08:49:14;;;;;;;78.32;26.23;;;;;;;1.56;98.77;102613.03;5073108;28;20039;-72
2022/01/19 08:51:39;;;;;;;71.85;25.38;;;;;;;1.58;98.28;102605.44;5076079;28;20319;-72
2022/01/19 08:54:05;;;;;;;80.35;25.98;;;;;;;1.59;98.00;102604.66;5076443;28;20020;-72
2022/01/19 08:56:30;;;;;;;77.07;25.38;;;;;;;1.60;98.42;102603.00;5085612;28;20281;-72
2022/01/19 08:58:56;;;;;;;72.53;24.23;;;;;;;1.62;98.00;102604.03;5086022;28;20016;-72
2022/01/19 09:01:22;;;;;;;73.63;23.67;;;;;;;1.63;98.54;102595.56;5084199;28;20048;-72
2022/01/19 09:03:47;;;;;;;71.53;24.17;;;;;;;1.65;98.31;102601.72;5082317;28;20016;-72
2022/01/19 09:06:13;;;;;;;71.63;24.15;;;;;;;1.66;98.31;102598.41;5079918;28;20024;-72
2022/01/19 09:08:38;;;;;;;67.93;24.85;;;;;;;1.66;98.22;102591.59;5078650;28;20291;-72
2022/01/19 09:11:05;;;;;;;72.07;24.00;;;;;;;1.69;98.52;102593.53;5082040;28;20036;-72
2022/01/19 09:13:31;;;;;;;69.40;23.88;;;;;;;1.71;98.30;102586.88;5084267;28;20036;-72
2022/01/19 09:15:56;;;;;;;75.63;25.00;;;;;;;1.73;98.10;102587.91;5079823;28;20279;-72
2022/01/19 09:18:22;;;;;;;70.32;24.48;;;;;;;1.74;98.36;102582.00;5076858;28;20057;-72
2022/01/19 09:20:47;;;;;;;76.10;25.25;;;;;;;1.76;98.03;102583.03;5080464;28;20052;-72
2022/01/19 09:23:13;;;;;;;68.43;24.65;;;;;;;1.78;97.90;102578.91;5084851;28;20026;-72
2022/01/19 09:25:40;;;;;;;74.32;24.13;;;;;;;1.79;97.93;102582.38;5080795;28;20098;-72
2022/01/19 09:28:07;;;;;;;72.95;25.48;;;;;;;1.80;98.57;102582.53;5074145;28;20020;-70
2022/01/19 09:30:32;;;;;;;71.88;24.88;;;;;;;1.82;98.11;102583.53;5074597;28;20088;-67
2022/01/19 09:33:09;;;;;;;64.75;24.38;;;;;;;1.84;98.37;102583.69;5070420;28;20179;-67
2022/01/19 09:38:33;;;;;;;67.82;23.75;;;;;;;1.88;98.03;102565.19;5079830;28;20025;-67
2022/01/19 09:40:59;;;;;;;69.68;24.80;;;;;;;1.89;98.53;102565.31;5087448;28;20027;-67
2022/01/19 09:43:25;;;;;;;68.32;22.60;;;;;;;1.91;98.53;102557.72;5084204;28;20012;-67
2022/01/19 09:45:53;;;;;;;72.22;25.42;;;;;;;1.90;98.08;102559.41;5074053;28;20199;-67
2022/01/19 09:48:19;;;;;;;65.97;23.67;;;;;;;1.91;98.28;102543.25;5083191;28;20016;-67
2022/01/19 09:50:45;;;;;;;71.70;24.25;;;;;;;1.94;98.04;102546.81;5082836;28;20125;-67
2022/01/19 09:53:10;;;;;;;73.47;25.02;;;;;;;1.95;98.03;102540.94;5082800;28;20021;-67
2022/01/19 09:55:38;;;;;;;65.35;23.52;;;;;;;1.95;98.14;102534.09;5082927;28;20028;-67
2022/01/19 09:58:04;;;;;;;67.65;25.23;;;;;;;1.98;98.27;102524.06;5082727;28;20198;-67
2022/01/19 10:00:29;;;;;;;64.18;24.63;;;;;;;2.00;98.39;102525.13;5082473;28;20094;-67
2022/01/19 10:03:23;;;;;;;71.53;24.92;;;;;;;2.02;98.40;102531.28;5078056;28;20039;-67
2022/01/19 10:06:03;;;;;;;66.57;23.77;;;;;;;2.06;98.17;102524.75;5084361;28;20202;-67
2022/01/19 10:08:54;;;;;;;71.45;24.52;;;;;;;2.07;98.13;102521.38;5084112;28;20289;-67
2022/01/19 10:16:59;;;;;;;62.58;23.45;;;;;;;2.14;98.04;102504.81;5080779;28;20047;-73
2022/01/19 10:19:32;;;;;;;66.60;23.00;;;;;;;2.16;98.13;102513.56;5079017;28;20025;-73
2022/01/19 10:22:03;;;;;;;70.20;23.67;;;;;;;2.19;98.41;102518.97;5082052;28;20282;-73
2022/01/19 10:24:46;;;;;;;69.28;24.73;;;;;;;2.20;98.03;102516.53;5079170;28;20046;-74
2022/01/19 10:27:34;;;;;;;70.47;23.85;;;;;;;2.22;98.31;102512.41;5081618;28;20000;-72
2022/01/19 10:30:02;;;;;;;64.60;23.10;;;;;;;2.22;97.98;102504.69;5082951;28;20058;-74
2022/01/19 10:32:27;;;;;;;65.28;23.02;;;;;;;2.25;98.34;102498.91;5078405;28;20016;-66
2022/01/19 10:34:53;;;;;;;71.40;24.52;;;;;;;2.28;98.34;102495.72;5078119;28;20515;-66
2022/01/19 10:37:28;;;;;;;61.20;23.77;;;;;;;2.30;98.01;102481.28;5067272;28;20017;-66
2022/01/19 10:39:57;;;;;;;64.70;24.05;;;;;;;2.32;97.99;102479.72;5077277;28;20044;-66
2022/01/19 10:42:26;;;;;;;64.82;23.63;;;;;;;2.33;97.92;102463.53;5075431;28;20005;-66
2022/01/19 10:44:53;;;;;;;64.40;22.80;;;;;;;2.36;98.14;102466.38;5077669;28;20058;-66
2022/01/19 10:47:36;;;;;;;62.33;23.63;;;;;;;2.39;97.91;102475.25;5080078;28;20017;-66
2022/01/19 10:50:01;;;;;;;66.68;24.40;;;;;;;2.42;98.18;102464.31;5080578;28;20168;-66
2022/01/19 10:52:37;;;;;;;65.20;24.33;;;;;;;2.45;97.52;102467.16;5076835;28;20047;-66
2022/01/19 10:55:06;;;;;;;63.55;23.02;;;;;;;2.46;97.73;102474.06;5082968;28;20087;-66
2022/01/19 10:57:33;;;;;;;61.05;22.67;;;;;;;2.49;97.90;102476.94;5080413;28;20267;-67
2022/01/19 11:00:19;;;;;;;66.45;23.35;;;;;;;2.51;97.96;102470.22;5081286;28;20213;-67
2022/01/19 11:02:46;;;;;;;63.25;23.60;;;;;;;2.53;97.40;102466.09;5079850;28;20031;-67
2022/01/19 11:05:12;;;;;;;62.47;24.00;;;;;;;2.55;97.97;102456.84;5078406;28;20016;-67
2022/01/19 11:07:38;;;;;;;65.40;24.25;;;;;;;2.55;97.53;102443.97;5083096;28;20080;-67
2022/01/19 11:10:18;;;;;;;70.55;24.63;;;;;;;2.56;97.59;102443.22;5076178;28;20062;-67
2022/01/19 11:12:55;;;;;;;69.75;24.48;;;;;;;2.58;97.34;102439.06;5081055;28;20040;-67
2022/01/19 11:15:21;;;;;;;66.97;22.95;;;;;;;2.61;97.64;102447.03;5080990;28;20104;-67
2022/01/19 11:17:49;;;;;;;73.20;26.00;;;;;;;2.63;97.80;102438.56;5087570;28;20028;-67
2022/01/19 11:20:20;;;;;;;66.10;25.27;;;;;;;2.64;97.55;102425.81;5087362;28;20024;-68
2022/01/19 11:22:57;;;;;;;70.40;25.15;;;;;;;2.66;97.53;102428.50;5073894;28;20023;-67
2022/01/19 11:25:29;;;;;;;67.28;24.35;;;;;;;2.66;97.16;102420.78;5087105;28;20024;-67
2022/01/19 11:27:54;;;;;;;69.57;24.45;;;;;;;2.65;97.20;102413.81;5075513;28;20077;-67
2022/01/19 11:30:24;;;;;;;76.53;26.92;;;;;;;2.67;97.33;102407.16;5086967;28;20056;-67
2022/01/19 11:33:11;;;;;;;75.45;25.83;;;;;;;2.68;97.42;102409.84;5087201;28;20012;-67
2022/01/19 11:35:38;;;;;;;72.18;26.33;;;;;;;2.69;97.16;102397.88;5089702;28;20222;-67
2022/01/19 11:38:39;;;;;;;72.35;25.35;;;;;;;2.70;97.31;102392.84;5097867;28;20027;-67
2022/01/19 11:41:07;;;;;;;82.70;27.02;;;;;;;2.71;97.46;102391.16;5086719;28;20311;-67
2022/01/19 11:43:34;;;;;;;77.90;26.95;;;;;;;2.71;97.38;102380.84;5079403;28;20271;-67
2022/01/19 11:46:03;;;;;;;70.00;25.67;;;;;;;2.73;97.41;102387.03;5086872;28;20012;-67
2022/01/19 11:48:34;;;;;;;72.77;26.63;;;;;;;2.74;97.03;102375.97;5086746;28;20087;-67
2022/01/19 11:51:26;;;;;;;67.65;25.23;;;;;;;2.75;97.04;102367.47;5086602;28;20240;-67
2022/01/19 11:54:15;;;;;;;80.38;28.17;;;;;;;2.77;97.24;102363.34;5079196;28;20028;-80
2022/01/19 11:56:58;;;;;;;70.90;24.88;;;;;;;2.78;97.14;102359.97;5083343;28;20035;-80
2022/01/19 11:59:26;;;;;;;80.57;27.50;;;;;;;2.77;97.12;102353.06;5079045;28;20032;-80
2022/01/19 12:01:55;;;;;;;79.88;27.23;;;;;;;2.78;96.86;102353.19;5084029;28;20039;-80
2022/01/19 12:04:22;;;;;;;75.30;26.15;;;;;;;2.81;97.07;102344.81;5070599;28;20031;-80
2022/01/19 12:06:48;;;;;;;83.38;28.98;;;;;;;2.81;96.91;102342.22;5080922;28;20008;-80
2022/01/19 12:09:15;;;;;;;80.30;27.27;;;;;;;2.82;97.05;102343.13;5067935;28;20031;-80
2022/01/19 12:11:49;;;;;;;78.95;28.50;;;;;;;2.81;96.99;102336.16;5080812;28;20040;-80
2022/01/19 12:14:19;;;;;;;91.93;28.85;;;;;;;2.82;97.17;102333.72;5080013;28;20199;-80
2022/01/19 12:17:24;;;;;;;82.85;28.65;;;;;;;2.84;96.74;102328.69;5080535;28;20036;-80
2022/01/19 12:19:50;;;;;;;83.15;28.08;;;;;;;2.84;97.02;102321.88;5080982;28;20020;-80
2022/01/19 12:22:24;;;;;;;80.13;29.20;;;;;;;2.87;97.11;102316.97;5086193;28;20020;-80
2022/01/19 12:25:01;;;;;;;88.38;29.95;;;;;;;2.88;97.27;102311.06;5083402;28;20202;-80
2022/01/19 12:27:35;;;;;;;84.88;30.38;;;;;;;2.90;97.32;102290.56;5085950;28;20046;-79
2022/01/19 12:30:06;;;;;;;91.25;31.17;;;;;;;2.92;97.15;102292.47;5084527;28;20008;-79
2022/01/19 12:32:44;;;;;;;100.78;33.78;;;;;;;2.95;96.93;102290.16;5084659;28;20009;-79
2022/01/19 12:35:19;;;;;;;131.07;40.92;;;;;;;3.00;96.63;102297.31;5077030;28;20027;-79
2022/01/19 12:37:57;;;;;;;160.80;49.25;;;;;;;3.01;96.52;102293.97;5098771;28;20034;-80
2022/01/19 12:40:24;;;;;;;101.72;33.33;;;;;;;3.03;96.36;102285.59;5073007;28;20017;-79